Time;durP1;ratioP1;P1;durP2;ratioP2;P2;SDS_P1;SDS_P2;PMS_P1;PMS_P2;Temp;Humidity;BMP_temperature;BMP_pressure;BME280_temperature;BME280_humidity;BME280_pressure;Samples;Min_cycle;Max_cycle;Signal;HPM_P1;HPM_P2
2021/08/07 00:00:53;;;;;;;6.72;3.67;;;;;;;15.46;56.36;100327.13;5012754;28;20034;-63
2021/08/07 00:03:19;;;;;;;3.17;2.70;;;;;;;15.57;56.18;100328.97;5012374;28;20065;-64
2021/08/07 00:05:45;;;;;;;2.97;2.53;;;;;;;15.42;56.48;100328.28;5013166;28;20521;-66
2021/08/07 00:08:10;;;;;;;3.17;2.83;;;;;;;15.54;56.14;100334.47;5013189;28;20080;-64
2021/08/07 00:10:36;;;;;;;6.57;2.78;;;;;;;15.49;56.17;100329.53;5010437;28;20442;-64
2021/08/07 00:13:02;;;;;;;4.07;2.65;;;;;;;15.59;55.99;100334.97;5015463;28;20037;-64
2021/08/07 00:15:28;;;;;;;4.90;3.53;;;;;;;15.45;55.89;100328.06;5013697;28;20065;-64
2021/08/07 00:17:53;;;;;;;5.13;2.63;;;;;;;15.53;56.10;100328.38;5012617;28;20104;-64
2021/08/07 00:20:19;;;;;;;5.57;3.03;;;;;;;15.58;55.86;100326.25;5012361;28;20631;-64
2021/08/07 00:22:44;;;;;;;3.72;2.72;;;;;;;15.52;55.75;100331.94;5012189;28;20040;-64
2021/08/07 00:25:10;;;;;;;2.75;2.55;;;;;;;15.36;56.16;100329.53;5013509;28;20520;-63
2021/08/07 00:27:36;;;;;;;3.47;3.03;;;;;;;15.40;56.08;100332.81;5010930;28;20029;-63
2021/08/07 00:30:04;;;;;;;5.65;2.90;;;;;;;15.39;55.75;100336.38;5014621;28;20038;-64
2021/08/07 00:32:29;;;;;;;5.05;2.72;;;;;;;15.32;55.73;100330.69;5012419;28;20383;-63
2021/08/07 00:34:55;;;;;;;9.30;2.95;;;;;;;15.27;55.96;100321.44;5032278;28;20032;-63
2021/08/07 00:37:23;;;;;;;3.13;2.83;;;;;;;15.25;55.84;100318.06;5003294;28;20284;-62
2021/08/07 00:39:56;;;;;;;5.28;2.42;;;;;;;15.22;56.32;100329.66;5012609;28;20087;-65
2021/08/07 00:42:22;;;;;;;3.20;2.50;;;;;;;15.12;56.33;100324.09;5012538;28;20037;-61
2021/08/07 00:44:49;;;;;;;6.15;2.80;;;;;;;15.12;56.14;100323.28;5028624;28;20160;-62
2021/08/07 00:47:15;;;;;;;4.45;2.30;;;;;;;15.13;56.23;100323.19;5016386;28;20139;-64
2021/08/07 00:49:43;;;;;;;3.55;2.80;;;;;;;15.01;56.66;100317.91;5012845;28;20034;-64
2021/08/07 00:52:11;;;;;;;2.72;2.42;;;;;;;15.02;56.43;100320.44;5027745;28;20038;-63
2021/08/07 00:54:42;;;;;;;4.35;3.58;;;;;;;14.95;56.51;100320.00;5010760;28;20033;-64
2021/08/07 00:57:09;;;;;;;4.65;3.10;;;;;;;14.95;56.35;100313.91;5016861;28;20037;-64
2021/08/07 00:59:37;;;;;;;7.20;3.80;;;;;;;14.84;56.60;100311.16;5012016;28;20119;-64
2021/08/07 01:02:11;;;;;;;4.40;3.03;;;;;;;14.85;56.50;100316.28;5012513;28;20061;-63
2021/08/07 01:05:00;;;;;;;3.97;2.55;;;;;;;14.71;56.99;100298.81;5012803;28;20033;-65
2021/08/07 01:07:37;;;;;;;2.95;2.25;;;;;;;14.85;56.69;100304.94;5027535;28;20048;-63
2021/08/07 01:10:24;;;;;;;7.28;2.95;;;;;;;14.77;57.07;100301.03;5003890;28;20424;-63
2021/08/07 01:13:09;;;;;;;3.00;2.70;;;;;;;14.75;57.05;100309.97;5003702;28;20037;-63
2021/08/07 01:15:41;;;;;;;4.35;2.78;;;;;;;14.80;57.09;100307.03;5026447;28;20033;-63
2021/08/07 01:18:13;;;;;;;6.15;3.10;;;;;;;14.72;57.27;100299.63;5009611;28;20045;-62
2021/08/07 01:20:42;;;;;;;5.57;2.83;;;;;;;;;;5026880;28;20040;-64
2021/08/07 01:23:14;;;;;;;3.85;3.17;;;;;;;14.80;56.79;100288.63;5010788;28;20546;-64
2021/08/07 01:26:02;;;;;;;3.63;3.28;;;;;;;14.88;56.50;100279.28;5028887;28;20403;-64
2021/08/07 01:28:38;;;;;;;;;;;;;;;14.91;56.38;100272.97;5012781;28;20037;-65
2021/08/07 01:31:05;;;;;;;5.30;3.25;;;;;;;14.97;56.37;100269.91;5009470;28;20305;-63
2021/08/07 01:33:33;;;;;;;7.15;4.28;;;;;;;14.88;56.49;100279.28;5016048;28;20200;-64
2021/08/07 01:36:05;;;;;;;4.95;3.72;;;;;;;14.81;56.88;100277.13;5009504;28;20030;-65
2021/08/07 01:38:33;;;;;;;7.20;3.58;;;;;;;14.88;56.64;100288.94;5009570;28;20091;-63
2021/08/07 01:41:01;;;;;;;5.80;3.05;;;;;;;14.93;56.39;100284.22;5000895;28;20407;-62
2021/08/07 01:43:27;;;;;;;8.13;3.65;;;;;;;14.90;56.61;100292.31;5009166;28;20057;-63
2021/08/07 01:45:56;;;;;;;5.03;4.13;;;;;;;14.90;56.73;100295.81;5009567;28;20048;-65
2021/08/07 01:48:52;;;;;;;4.43;3.97;;;;;;;14.94;56.38;100285.91;5009143;28;20397;-64
2021/08/07 01:51:37;;;;;;;7.05;4.07;;;;;;;14.82;56.89;100289.38;5005325;28;20530;-64
2021/08/07 01:54:05;;;;;;;4.95;4.50;;;;;;;14.89;56.57;100285.38;5011903;28;20137;-62
2021/08/07 01:56:40;;;;;;;5.90;3.58;;;;;;;14.89;56.40;100269.59;5007857;28;20560;-62
2021/08/07 01:59:20;;;;;;;7.55;3.92;;;;;;;14.88;56.61;100275.78;5011141;28;20106;-64
2021/08/07 02:01:48;;;;;;;5.13;3.50;;;;;;;14.79;56.83;100264.13;5028316;28;20096;-64
2021/08/07 02:04:24;;;;;;;6.97;4.35;;;;;;;14.73;56.79;100264.50;5007876;28;20113;-63
2021/08/07 02:07:01;;;;;;;4.38;4.03;;;;;;;14.75;56.52;100255.56;5003696;28;20383;-64
2021/08/07 02:09:28;;;;;;;6.63;4.05;;;;;;;14.70;56.74;100255.06;5008910;28;20343;-62
2021/08/07 02:11:59;;;;;;;8.85;4.47;;;;;;;14.71;56.46;100251.47;5013787;28;20030;-63
2021/08/07 02:14:32;;;;;;;4.32;3.92;;;;;;;14.64;56.67;100258.09;5010892;28;20033;-63
2021/08/07 02:17:02;;;;;;;4.32;3.47;;;;;;;14.63;56.62;100259.00;5010190;28;20397;-63
2021/08/07 02:19:29;;;;;;;6.05;3.83;;;;;;;14.62;56.81;100265.22;5025515;28;20375;-64
2021/08/07 02:21:57;;;;;;;6.07;3.38;;;;;;;14.64;56.83;100255.44;5009367;28;20237;-64
2021/08/07 02:24:26;;;;;;;6.45;3.83;;;;;;;14.52;57.31;100256.25;5008339;28;20044;-63
2021/08/07 02:26:55;;;;;;;5.22;3.83;;;;;;;14.38;57.32;100245.78;5011506;28;20056;-65
2021/08/07 02:29:22;;;;;;;4.72;3.13;;;;;;;14.49;57.13;100252.03;5009243;28;20084;-64
2021/08/07 02:32:00;;;;;;;6.43;3.53;;;;;;;14.49;57.11;100259.09;5011946;28;20499;-65
2021/08/07 02:34:28;;;;;;;5.05;3.80;;;;;;;14.44;57.12;100258.56;5024634;28;20398;-64
2021/08/07 02:36:56;;;;;;;7.43;3.35;;;;;;;14.36;57.18;100248.50;5011100;28;20391;-63
2021/08/07 02:39:29;;;;;;;4.90;3.78;;;;;;;14.46;56.97;100256.69;5009537;28;20029;-64
2021/08/07 02:41:56;;;;;;;4.78;3.88;;;;;;;14.33;57.03;100246.94;5008870;28;20026;-63
2021/08/07 02:44:24;;;;;;;4.95;3.85;;;;;;;14.26;57.34;100260.59;5016470;28;20403;-64
2021/08/07 02:46:53;;;;;;;6.07;3.78;;;;;;;14.20;57.53;100251.31;5009935;28;20448;-63
2021/08/07 02:49:19;;;;;;;5.43;3.63;;;;;;;14.14;57.62;100251.69;5017339;28;20030;-63
2021/08/07 02:51:49;;;;;;;4.63;3.33;;;;;;;14.13;57.92;100250.03;5012419;28;20022;-64
2021/08/07 02:54:15;;;;;;;4.93;3.60;;;;;;;14.06;58.07;100260.09;5018110;28;20038;-64
2021/08/07 02:56:41;;;;;;;6.35;3.92;;;;;;;14.08;57.93;100257.38;5014634;28;20025;-63
2021/08/07 02:59:08;;;;;;;3.75;2.95;;;;;;;13.99;58.13;100253.56;5013447;28;20033;-63
2021/08/07 03:01:36;;;;;;;8.00;3.45;;;;;;;14.12;57.76;100248.31;5022310;28;20030;-63
2021/08/07 03:04:01;;;;;;;5.32;3.40;;;;;;;14.11;57.60;100241.41;5014129;28;20030;-62
2021/08/07 03:06:28;;;;;;;7.32;3.70;;;;;;;14.14;57.62;100246.44;5012242;28;20029;-64
2021/08/07 03:08:55;;;;;;;4.75;3.20;;;;;;;14.07;57.92;100248.63;5014779;28;20084;-64
2021/08/07 03:11:22;;;;;;;4.07;3.17;;;;;;;14.13;57.67;100245.59;5015181;28;20158;-63
2021/08/07 03:13:51;;;;;;;11.65;3.88;;;;;;;14.11;57.63;100249.28;5013874;28;20034;-63
2021/08/07 03:16:19;;;;;;;4.03;3.33;;;;;;;14.17;57.74;100248.88;4995445;28;20065;-62
2021/08/07 03:18:48;;;;;;;4.35;3.85;;;;;;;14.17;57.47;100250.69;5031711;28;20065;-62
2021/08/07 03:21:14;;;;;;;3.65;2.80;;;;;;;14.23;57.70;100256.38;5026356;28;20025;-63
2021/08/07 03:23:52;;;;;;;6.82;3.67;;;;;;;14.26;57.45;100258.81;5011751;28;20252;-64
2021/08/07 03:26:18;;;;;;;3.85;3.53;;;;;;;14.32;57.05;100250.53;5011035;28;20037;-63
2021/08/07 03:28:45;;;;;;;3.90;3.50;;;;;;;14.23;57.34;100253.75;5022023;28;20501;-65
2021/08/07 03:31:13;;;;;;;4.65;3.42;;;;;;;14.26;57.25;100260.59;5027819;28;20040;-64
2021/08/07 03:33:39;;;;;;;5.63;3.42;;;;;;;14.33;56.93;100261.88;5014674;28;20034;-65
2021/08/07 03:36:07;;;;;;;7.82;3.67;;;;;;;14.25;57.13;100258.88;5012236;28;20033;-63
2021/08/07 03:38:34;;;;;;;3.65;3.35;;;;;;;14.22;57.21;100257.31;5016497;28;20029;-63
2021/08/07 03:41:00;;;;;;;12.07;4.05;;;;;;;14.20;57.23;100261.81;5025084;28;20037;-64
2021/08/07 03:43:26;;;;;;;6.95;4.13;;;;;;;14.29;57.16;100261.22;5029196;28;20032;-62
2021/08/07 03:45:52;;;;;;;9.90;4.43;;;;;;;14.18;57.64;100263.69;5033254;28;20080;-61
2021/08/07 03:48:21;;;;;;;8.00;3.70;;;;;;;14.36;56.96;100259.88;5022213;28;20053;-65
2021/08/07 03:50:50;;;;;;;6.05;3.60;;;;;;;14.29;57.23;100265.63;5022867;28;20029;-63
2021/08/07 03:53:21;;;;;;;7.03;3.55;;;;;;;14.30;57.11;100262.91;5013714;28;20099;-65
2021/08/07 03:55:51;;;;;;;9.10;4.30;;;;;;;14.23;57.31;100263.41;5021933;28;20042;-63
2021/08/07 03:58:16;;;;;;;8.27;4.65;;;;;;;14.32;57.12;100257.53;5019467;28;20510;-65
2021/08/07 04:01:07;;;;;;;3.70;3.35;;;;;;;14.20;57.32;100267.06;5016644;28;20045;-64
2021/08/07 04:03:34;;;;;;;7.47;4.25;;;;;;;14.33;56.97;100260.06;4994771;28;20112;-64
2021/08/07 04:06:02;;;;;;;4.65;3.13;;;;;;;14.40;56.84;100252.63;5012105;28;20025;-63
2021/08/07 04:08:30;;;;;;;4.80;3.47;;;;;;;14.44;56.65;100258.56;5011894;28;20030;-66
2021/08/07 04:10:56;;;;;;;5.05;3.10;;;;;;;14.46;56.78;100259.31;5018800;28;20088;-65
2021/08/07 04:13:24;;;;;;;5.03;2.95;;;;;;;14.54;56.59;100264.88;4999721;28;20034;-64
2021/08/07 04:15:51;;;;;;;7.47;3.65;;;;;;;14.43;56.91;100264.75;5013353;28;20030;-64
2021/08/07 04:18:17;;;;;;;4.50;2.75;;;;;;;14.47;56.73;100274.97;4997155;28;20034;-64
2021/08/07 04:20:44;;;;;;;3.47;3.17;;;;;;;14.52;56.48;100272.91;5019475;28;20049;-64
2021/08/07 04:23:10;;;;;;;5.63;3.33;;;;;;;14.54;56.74;100270.16;5012140;28;20076;-63
2021/08/07 04:25:39;;;;;;;5.38;3.08;;;;;;;14.50;56.64;100266.03;5013609;28;20026;-63
2021/08/07 04:28:06;;;;;;;5.10;2.80;;;;;;;14.54;56.71;100276.28;5012518;28;20075;-65
2021/08/07 04:30:32;;;;;;;8.00;2.95;;;;;;;14.56;56.77;100279.63;5021170;28;20033;-63
2021/08/07 04:33:01;;;;;;;3.88;3.03;;;;;;;14.62;56.62;100278.38;5011981;28;20026;-63
2021/08/07 04:35:28;;;;;;;5.53;3.00;;;;;;;14.60;56.72;100275.00;5015093;28;20026;-63
2021/08/07 04:37:58;;;;;;;4.25;2.50;;;;;;;14.61;56.58;100271.41;5028564;28;20061;-64
2021/08/07 04:40:30;;;;;;;3.67;3.25;;;;;;;14.64;56.47;100275.66;5011702;28;20566;-63
2021/08/07 04:43:02;;;;;;;3.33;2.40;;;;;;;14.68;56.17;100272.72;5012649;28;20489;-63
2021/08/07 04:45:28;;;;;;;4.63;3.40;;;;;;;14.64;56.12;100273.03;5011515;28;20022;-64
2021/08/07 04:48:00;;;;;;;6.95;3.38;;;;;;;14.63;56.30;100272.16;5013054;28;20028;-64
2021/08/07 04:50:34;;;;;;;4.80;3.05;;;;;;;14.62;56.14;100273.13;5013122;28;20119;-64
2021/08/07 04:53:03;;;;;;;4.45;3.15;;;;;;;14.68;56.26;100275.34;5026365;28;20168;-63
2021/08/07 04:55:30;;;;;;;6.78;3.83;;;;;;;14.76;56.00;100280.09;5011715;28;20123;-64
2021/08/07 04:57:56;;;;;;;2.60;2.33;;;;;;;14.79;56.03;100279.91;5012607;28;20526;-63
2021/08/07 05:00:24;;;;;;;4.80;2.63;;;;;;;14.60;56.37;100296.03;5010201;28;20515;-65
2021/08/07 05:02:50;;;;;;;3.78;2.50;;;;;;;14.56;56.40;100297.19;5012528;28;20148;-63
2021/08/07 05:05:18;;;;;;;4.35;3.08;;;;;;;14.66;55.84;100295.66;4995097;28;20391;-64
2021/08/07 05:07:48;;;;;;;5.25;2.70;;;;;;;14.53;55.91;100298.25;5008124;28;20486;-64
2021/08/07 05:10:14;;;;;;;2.92;2.38;;;;;;;14.44;56.28;100295.38;5009776;28;20037;-64
2021/08/07 05:12:40;;;;;;;7.28;2.63;;;;;;;14.60;55.94;100290.78;5012253;28;20025;-63
2021/08/07 05:15:07;;;;;;;4.32;2.60;;;;;;;14.72;55.68;100294.38;5028048;28;20513;-61
2021/08/07 05:17:32;;;;;;;4.47;2.55;;;;;;;;;;5019316;28;20029;-64
2021/08/07 05:19:58;;;;;;;11.55;2.63;;;;;;;;;;5010648;28;20060;-64
2021/08/07 05:22:24;;;;;;;4.32;2.47;;;;;;;14.92;55.21;100300.94;5010715;28;20042;-63
2021/08/07 05:24:52;;;;;;;5.50;2.58;;;;;;;14.93;54.83;100303.47;5012426;28;20457;-63
2021/08/07 05:27:19;;;;;;;5.68;2.20;;;;;;;14.87;55.31;100305.69;5016019;28;20056;-64
2021/08/07 05:29:46;;;;;;;6.75;2.42;;;;;;;15.15;54.99;100294.97;5013097;28;20030;-63
2021/08/07 05:32:13;;;;;;;5.93;2.20;;;;;;;15.46;54.50;100308.69;5010895;28;20034;-64
2021/08/07 05:34:38;;;;;;;4.95;1.98;;;;;;;15.84;53.00;100304.28;5024466;28;20571;-65
2021/08/07 05:37:06;;;;;;;3.75;2.30;;;;;;;15.67;52.71;100310.75;5010979;28;20042;-64
2021/08/07 05:39:32;;;;;;;3.30;1.85;;;;;;;15.49;53.35;100308.47;5012159;28;20034;-61
2021/08/07 05:41:58;;;;;;;2.33;1.83;;;;;;;15.42;53.43;100315.09;5015594;28;20502;-63
2021/08/07 05:44:24;;;;;;;4.20;2.00;;;;;;;15.33;53.51;100310.47;5012538;28;20482;-67
2021/08/07 05:46:51;;;;;;;4.30;1.77;;;;;;;15.29;53.43;100320.38;5011725;28;20068;-65
2021/08/07 05:49:18;;;;;;;6.25;2.35;;;;;;;15.23;53.85;100314.69;5010510;28;20483;-65
2021/08/07 05:51:44;;;;;;;4.50;2.45;;;;;;;17.10;50.74;100311.72;5026045;28;20071;-64
2021/08/07 05:54:10;;;;;;;5.32;2.35;;;;;;;19.62;43.78;100307.09;5027193;28;20614;-65
2021/08/07 05:56:35;;;;;;;6.40;1.90;;;;;;;19.96;42.60;100306.75;5011959;28;20397;-64
2021/08/07 05:59:01;;;;;;;4.20;2.05;;;;;;;20.40;41.73;100315.22;5028262;28;20440;-64
2021/08/07 06:01:26;;;;;;;4.18;2.40;;;;;;;19.96;42.29;100309.41;5008617;28;20350;-64
2021/08/07 06:03:52;;;;;;;4.07;1.83;;;;;;;19.73;43.12;100307.97;4996038;28;20552;-64
2021/08/07 06:06:18;;;;;;;6.53;3.13;;;;;;;19.83;42.73;100311.47;5010858;28;20109;-64
2021/08/07 06:08:45;;;;;;;5.35;2.13;;;;;;;19.91;42.57;100301.03;4995032;28;20038;-63
2021/08/07 06:11:10;;;;;;;5.43;1.50;;;;;;;19.92;44.14;100297.38;5008373;28;20049;-65
2021/08/07 06:13:36;;;;;;;2.92;1.90;;;;;;;21.71;38.99;100293.28;5008536;28;20394;-65
2021/08/07 06:16:01;;;;;;;2.78;1.85;;;;;;;21.96;37.88;100293.56;5014003;28;20059;-63
2021/08/07 06:18:29;;;;;;;2.65;1.77;;;;;;;22.16;38.64;100297.78;5012109;28;20573;-63
2021/08/07 06:20:54;;;;;;;2.08;1.60;;;;;;;23.48;35.42;100293.44;4997801;28;20037;-64
2021/08/07 06:23:20;;;;;;;5.15;1.48;;;;;;;21.71;37.95;100300.41;5011688;28;20026;-66
2021/08/07 06:25:46;;;;;;;5.00;1.92;;;;;;;21.85;37.69;100296.44;5011945;28;20021;-62
2021/08/07 06:28:12;;;;;;;5.93;2.67;;;;;;;24.10;34.84;100288.66;5016513;28;20038;-64
2021/08/07 06:30:45;;;;;;;8.02;3.60;;;;;;;25.32;31.65;100289.56;5003875;28;20245;-66
2021/08/07 06:33:14;;;;;;;3.55;1.45;;;;;;;26.20;31.40;100290.31;5016962;28;20046;-64
2021/08/07 06:35:41;;;;;;;6.47;1.40;;;;;;;26.85;28.18;100283.63;5014172;28;20395;-64
2021/08/07 06:38:08;;;;;;;7.95;2.70;;;;;;;25.29;32.40;100283.75;5012834;28;20037;-63
2021/08/07 06:40:36;;;;;;;3.10;1.13;;;;;;;24.85;31.81;100290.34;5023829;28;20240;-64
2021/08/07 06:43:04;;;;;;;4.78;1.33;;;;;;;22.84;35.02;100298.22;4999415;28;20034;-65
2021/08/07 06:45:53;;;;;;;2.92;1.23;;;;;;;22.35;36.42;100290.63;5007006;28;20053;-64
2021/08/07 06:48:19;;;;;;;6.22;1.77;;;;;;;21.24;36.82;100292.47;5015568;28;20037;-65
2021/08/07 06:50:45;;;;;;;5.43;1.55;;;;;;;23.00;34.73;100293.81;5016887;28;20029;-65
2021/08/07 06:53:15;;;;;;;3.25;1.40;;;;;;;25.17;33.66;100285.94;5014877;28;20418;-64
2021/08/07 06:55:41;;;;;;;3.53;1.00;;;;;;;25.59;29.33;100291.00;5013818;28;20037;-64
2021/08/07 06:58:06;;;;;;;5.97;1.33;;;;;;;24.95;30.97;100288.31;5029969;28;20129;-62
2021/08/07 07:00:35;;;;;;;4.97;1.23;;;;;;;26.76;28.40;100282.00;5007215;28;20072;-64
2021/08/07 07:03:00;;;;;;;4.28;0.98;;;;;;;27.90;26.88;100283.38;5012793;28;20082;-63
2021/08/07 07:05:31;;;;;;;3.78;1.33;;;;;;;28.41;26.76;100290.50;4999613;28;20029;-64
2021/08/07 07:07:58;;;;;;;1.73;0.80;;;;;;;23.38;32.20;100289.03;5013698;28;20036;-65
2021/08/07 07:10:23;;;;;;;4.53;0.80;;;;;;;23.96;33.14;100307.94;5013386;28;20835;-65
2021/08/07 07:12:50;;;;;;;5.57;0.75;;;;;;;23.42;32.17;100311.72;5023166;28;20439;-65
2021/08/07 07:15:17;;;;;;;4.18;0.65;;;;;;;20.98;36.96;100309.06;5030461;28;20042;-64
2021/08/07 07:17:44;;;;;;;9.90;0.80;;;;;;;24.47;31.14;100305.22;5001959;28;20128;-65
2021/08/07 07:20:10;;;;;;;4.68;0.60;;;;;;;26.15;28.96;100304.25;5029550;28;20038;-65
2021/08/07 07:22:38;;;;;;;2.67;0.70;;;;;;;26.74;28.70;100300.97;5030995;28;20109;-64
2021/08/07 07:25:08;;;;;;;6.25;0.60;;;;;;;24.04;30.18;100297.31;5020966;28;20057;-63
2021/08/07 07:27:33;;;;;;;5.97;0.63;;;;;;;21.53;34.37;100305.66;5027514;28;20059;-63
2021/08/07 07:29:59;;;;;;;9.30;0.68;;;;;;;20.81;35.80;100305.28;5019117;28;20033;-66
2021/08/07 07:32:25;;;;;;;2.80;0.50;;;;;;;18.37;40.42;100318.53;5013624;28;20034;-63
2021/08/07 07:34:50;;;;;;;8.65;1.63;;;;;;;18.60;40.70;100306.03;5018845;28;20062;-64
2021/08/07 07:37:16;;;;;;;4.05;0.60;;;;;;;19.39;39.00;100300.25;5027835;28;20026;-64
2021/08/07 07:39:42;;;;;;;8.05;1.10;;;;;;;21.27;35.02;100302.81;5029326;28;20612;-64
2021/08/07 07:42:08;;;;;;;9.73;0.50;;;;;;;22.34;33.67;100302.28;5014881;28;20041;-62
2021/08/07 07:44:34;;;;;;;4.65;0.75;;;;;;;22.73;33.19;100304.63;5011972;28;20386;-64
2021/08/07 07:46:59;;;;;;;4.28;0.57;;;;;;;25.94;28.36;100299.50;5014032;28;20029;-63
2021/08/07 07:49:25;;;;;;;4.30;0.50;;;;;;;27.63;27.28;100294.81;5012977;28;20302;-65
2021/08/07 07:51:51;;;;;;;7.57;0.73;;;;;;;28.82;26.16;100299.75;5014293;28;20029;-67
2021/08/07 07:54:17;;;;;;;2.75;0.50;;;;;;;29.41;23.94;100295.75;5016055;28;20025;-65
2021/08/07 07:56:43;;;;;;;4.00;0.40;;;;;;;30.20;22.80;100292.53;5028942;28;20049;-64
2021/08/07 07:59:09;;;;;;;2.95;0.50;;;;;;;30.59;22.87;100298.97;5012725;28;20124;-65
2021/08/07 08:01:34;;;;;;;5.88;0.50;;;;;;;30.97;21.51;100301.81;5012174;28;20129;-64
2021/08/07 08:04:02;;;;;;;3.47;0.65;;;;;;;30.66;21.28;100307.06;5017423;28;20051;-64
2021/08/07 08:06:28;;;;;;;3.95;0.70;;;;;;;30.04;23.11;100298.25;5011327;28;20033;-64
2021/08/07 08:08:54;;;;;;;2.88;0.47;;;;;;;29.07;25.06;100300.94;5019049;28;20494;-64
2021/08/07 08:11:20;;;;;;;4.55;0.40;;;;;;;31.16;22.08;100291.25;5011130;28;20036;-65
2021/08/07 08:13:45;;;;;;;3.83;0.50;;;;;;;31.00;21.87;100293.34;5013200;28;20041;-66
2021/08/07 08:16:12;;;;;;;2.60;0.40;;;;;;;26.84;25.78;100298.03;5017030;28;20033;-65
2021/08/07 08:18:39;;;;;;;6.18;0.60;;;;;;;24.13;29.91;100293.66;5011064;28;20037;-65
2021/08/07 08:21:05;;;;;;;10.57;0.77;;;;;;;23.48;30.47;100288.09;5013700;28;20030;-65
2021/08/07 08:23:32;;;;;;;4.82;0.70;;;;;;;24.05;31.93;100290.13;5028247;28;20022;-65
2021/08/07 08:25:58;;;;;;;2.92;0.50;;;;;;;23.78;31.37;100290.19;5012052;28;20038;-63
2021/08/07 08:28:25;;;;;;;1.67;0.40;;;;;;;24.54;29.53;100291.03;4996590;28;20034;-64
2021/08/07 08:30:51;;;;;;;3.25;1.00;;;;;;;25.12;29.58;100285.63;5030511;28;20474;-68
2021/08/07 08:33:16;;;;;;;7.18;0.60;;;;;;;24.76;28.94;100294.84;5010619;28;20038;-65
2021/08/07 08:35:42;;;;;;;5.20;0.40;;;;;;;23.61;29.76;100296.47;4996033;28;20394;-65
2021/08/07 08:38:09;;;;;;;1.80;0.20;;;;;;;21.86;33.14;100296.25;5017640;28;20041;-65
2021/08/07 08:40:36;;;;;;;2.85;0.68;;;;;;;22.30;32.78;100292.91;4992339;28;20399;-64
2021/08/07 08:43:03;;;;;;;3.97;0.45;;;;;;;22.75;32.16;100294.66;5014701;28;20129;-64
2021/08/07 08:45:29;;;;;;;3.38;0.30;;;;;;;21.21;34.09;100296.25;5012827;28;20168;-66
2021/08/07 08:47:56;;;;;;;0.82;0.35;;;;;;;22.86;31.95;100294.38;5012652;28;20429;-65
2021/08/07 08:50:22;;;;;;;2.90;0.30;;;;;;;23.75;31.32;100285.19;5009950;28;20030;-63
2021/08/07 08:52:50;;;;;;;4.65;0.50;;;;;;;26.31;28.71;100286.41;5016175;28;20033;-63
2021/08/07 08:55:17;;;;;;;5.05;0.45;;;;;;;27.89;24.84;100287.06;5009074;28;20461;-64
2021/08/07 08:57:43;;;;;;;6.10;0.82;;;;;;;28.68;24.98;100280.81;5010204;28;20033;-64
2021/08/07 09:00:10;;;;;;;5.25;0.50;;;;;;;26.97;25.73;100287.50;5010398;28;20045;-65
2021/08/07 09:02:38;;;;;;;4.82;0.32;;;;;;;25.55;27.64;100273.63;5018718;28;20032;-64
2021/08/07 09:05:07;;;;;;;2.92;0.43;;;;;;;26.41;26.31;100273.59;5009612;28;20445;-64
2021/08/07 09:07:32;;;;;;;4.30;0.45;;;;;;;25.23;28.10;100277.25;5011399;28;20045;-64
2021/08/07 09:09:58;;;;;;;2.38;0.60;;;;;;;25.47;28.04;100277.13;4996150;28;20026;-63
2021/08/07 09:12:39;;;;;;;4.65;0.52;;;;;;;26.82;25.30;100271.38;5010205;28;20030;-64
2021/08/07 09:15:23;;;;;;;2.95;0.47;;;;;;;24.31;29.26;100271.31;5018703;28;20120;-63
2021/08/07 09:17:50;;;;;;;2.42;0.20;;;;;;;25.92;27.76;100271.25;5011537;28;20464;-66
2021/08/07 09:20:26;;;;;;;1.33;0.50;;;;;;;25.78;27.39;100278.19;5011424;28;20034;-65
2021/08/07 09:22:52;;;;;;;2.45;0.55;;;;;;;25.78;26.38;100268.31;5017560;28;20071;-65
2021/08/07 09:25:23;;;;;;;1.77;0.30;;;;;;;25.03;26.57;100258.06;5013070;28;20029;-63
2021/08/07 09:27:52;;;;;;;1.63;0.40;;;;;;;24.21;30.18;100274.97;5015007;28;20039;-64
2021/08/07 09:30:19;;;;;;;3.10;0.30;;;;;;;22.64;32.67;100282.38;5008196;28;20065;-64
2021/08/07 09:33:05;;;;;;;0.70;0.20;;;;;;;22.46;31.88;100277.06;4979736;28;1106722;-66
2021/08/07 09:35:39;;;;;;;2.33;0.30;;;;;;;21.49;33.59;100280.34;5011680;28;20136;-63
2021/08/07 09:38:24;;;;;;;3.03;0.30;;;;;;;23.06;32.00;100272.88;5010882;28;20046;-63
2021/08/07 09:41:06;;;;;;;1.10;0.30;;;;;;;25.13;30.13;100268.56;5019435;28;20030;-64
2021/08/07 09:43:49;;;;;;;5.63;0.93;;;;;;;24.95;28.39;100261.59;5009786;28;20034;-65
2021/08/07 09:46:21;;;;;;;1.80;0.20;;;;;;;24.59;28.81;100267.34;5010765;28;20034;-64
2021/08/07 09:48:55;;;;;;;1.15;0.30;;;;;;;23.89;29.30;100262.41;5019423;28;20033;-65
2021/08/07 09:51:36;;;;;;;2.47;0.50;;;;;;;23.28;29.44;100267.00;5025673;28;20482;-65
2021/08/07 09:54:18;;;;;;;1.73;0.30;;;;;;;22.57;31.59;100273.34;5009618;28;20030;-64
2021/08/07 09:57:08;;;;;;;;;;;;;;;;;;;;;
2021/08/07 09:59:48;;;;;;;1.10;0.30;;;;;;;23.61;30.37;100264.47;5012622;28;20033;-64
2021/08/07 10:02:31;;;;;;;1.30;0.30;;;;;;;23.52;31.16;100257.44;5000538;28;20039;-64
2021/08/07 10:05:04;;;;;;;2.72;0.30;;;;;;;23.28;30.84;100259.03;5008077;28;20512;-65
2021/08/07 10:07:32;;;;;;;6.18;0.40;;;;;;;22.63;32.47;100255.88;5011391;28;20033;-64
2021/08/07 10:10:22;;;;;;;3.63;0.80;;;;;;;21.70;33.82;100259.69;5011817;28;20048;-65
2021/08/07 10:13:02;;;;;;;0.93;0.20;;;;;;;23.07;32.78;100256.69;5012627;28;20034;-65
2021/08/07 10:16:00;;;;;;;1.08;0.38;;;;;;;22.93;32.22;100262.63;5008985;28;20096;-64
2021/08/07 10:18:41;;;;;;;4.05;0.30;;;;;;;23.38;31.39;100248.22;5008574;28;20105;-65
2021/08/07 10:21:10;;;;;;;2.00;0.63;;;;;;;24.13;30.71;100255.44;5017011;28;20569;-65
2021/08/07 10:23:50;;;;;;;4.53;0.85;;;;;;;25.46;29.93;100248.72;5007637;28;20520;-64
2021/08/07 10:26:23;;;;;;;3.15;0.50;;;;;;;25.78;27.92;100246.09;5009502;28;20103;-65
2021/08/07 10:29:00;;;;;;;2.05;0.40;;;;;;;24.88;29.09;100244.53;5014513;28;20041;-65
2021/08/07 10:31:30;;;;;;;2.83;0.50;;;;;;;23.83;31.73;100234.53;5008801;28;20049;-66
2021/08/07 10:34:08;;;;;;;2.30;0.60;;;;;;;23.13;31.64;100237.41;5008525;28;20471;-66
2021/08/07 10:36:43;;;;;;;2.65;0.20;;;;;;;22.94;31.60;100237.63;5010379;28;20030;-65
2021/08/07 10:39:22;;;;;;;3.90;0.50;;;;;;;22.81;32.33;100235.41;5009153;28;20040;-66
2021/08/07 10:41:52;;;;;;;2.40;0.60;;;;;;;23.16;32.17;100229.13;5025958;28;20073;-64
2021/08/07 10:44:19;;;;;;;1.88;0.60;;;;;;;23.56;31.48;100221.44;5011695;28;20053;-65
2021/08/07 10:46:58;;;;;;;3.90;0.20;;;;;;;24.99;28.77;100217.47;5026434;28;20034;-64
2021/08/07 10:49:45;;;;;;;2.05;0.30;;;;;;;24.00;28.37;100210.56;5009047;28;20069;-63
2021/08/07 10:52:21;;;;;;;1.50;0.17;;;;;;;26.18;27.25;100210.19;5017688;28;20038;-65
2021/08/07 10:54:52;;;;;;;1.98;0.25;;;;;;;26.25;25.55;100210.28;5010455;28;20030;-65
2021/08/07 10:57:37;;;;;;;;;;;;;;;26.16;26.21;100212.19;5013487;28;20478;-65
2021/08/07 11:00:28;;;;;;;1.27;0.52;;;;;;;26.73;25.59;100213.50;5026754;28;19922;-64
2021/08/07 11:03:15;;;;;;;2.22;0.30;;;;;;;27.04;25.04;100207.97;5008993;28;20140;-65
2021/08/07 11:05:55;;;;;;;1.27;0.20;;;;;;;25.76;25.83;100213.31;5010262;28;20041;-63
2021/08/07 11:08:23;;;;;;;1.63;0.38;;;;;;;25.85;27.67;100212.25;5009621;28;20112;-64
2021/08/07 11:10:55;;;;;;;2.50;0.25;;;;;;;26.13;26.39;100206.34;5010228;28;20328;-65
2021/08/07 11:13:31;;;;;;;1.02;0.20;;;;;;;25.68;26.80;100198.13;5013010;28;20530;-65
2021/08/07 11:16:28;;;;;;;1.65;0.52;;;;;;;25.94;27.97;100191.59;5017765;28;20037;-64
2021/08/07 11:19:04;;;;;;;2.10;0.30;;;;;;;25.23;27.97;100191.66;5006822;28;20127;-67
2021/08/07 11:21:50;;;;;;;1.20;0.30;;;;;;;25.42;27.88;100193.91;5013481;28;20105;-65
2021/08/07 11:24:57;;;;;;;1.38;0.20;;;;;;;24.76;27.56;100190.63;5013804;28;20038;-66
2021/08/07 11:30:30;;;;;;;1.85;0.43;;;;;;;24.18;29.28;100194.38;5015504;28;20487;-64
2021/08/07 11:33:06;;;;;;;5.30;0.57;;;;;;;23.33;30.77;100195.38;5016361;28;20601;-65
2021/08/07 11:35:42;;;;;;;1.73;0.20;;;;;;;22.74;31.91;100199.72;5012732;28;20131;-65
2021/08/07 11:38:29;;;;;;;2.35;0.20;;;;;;;21.35;34.51;100202.78;5013766;28;20033;-65
2021/08/07 11:41:08;;;;;;;3.13;0.30;;;;;;;20.32;39.81;100203.63;5016983;28;20108;-66
2021/08/07 11:43:43;;;;;;;2.03;0.40;;;;;;;19.47;43.87;100194.44;5014827;28;20096;-65
2021/08/07 11:46:16;;;;;;;5.55;0.57;;;;;;;18.78;46.72;100198.59;5015610;28;20430;-65